createdAt,value
2022-11-05T05:00:33.666Z,98.42
2022-11-05T05:04:45.175Z,99.07
2022-11-05T05:08:56.693Z,99.05
2022-11-05T05:13:11.743Z,98.73
2022-11-05T05:17:23.731Z,97.96
2022-11-05T05:21:41.573Z,97.94
2022-11-05T05:25:53.096Z,97.44
2022-11-05T05:30:05.033Z,98.32
2022-11-05T05:34:16.584Z,97.87
2022-11-05T05:38:29.159Z,97.06
2022-11-05T05:42:43.344Z,98.05
2022-11-05T05:46:55.512Z,97.84
2022-11-05T05:51:11.903Z,98.24
2022-11-05T05:55:23.423Z,97.65
2022-11-05T05:59:34.988Z,98.18
2022-11-05T06:03:50.091Z,98.24
2022-11-05T06:08:01.613Z,97.52
2022-11-05T06:12:13.106Z,97.47
2022-11-05T06:16:24.628Z,97.25
2022-11-05T06:20:36.122Z,97.10
2022-11-05T06:24:47.608Z,96.88
2022-11-05T06:28:59.113Z,97.24
2022-11-05T06:33:10.973Z,97.01
2022-11-05T06:37:22.624Z,97.17
2022-11-05T06:41:45.630Z,97.07
2022-11-05T06:46:06.849Z,97.37
2022-11-05T06:50:18.316Z,96.44
2022-11-05T06:54:29.808Z,96.05
2022-11-05T06:58:41.325Z,96.42
2022-11-05T07:02:52.893Z,97.04
2022-11-05T07:07:04.415Z,97.17
2022-11-05T07:11:16.135Z,100.00
2022-11-05T07:15:27.718Z,98.21
2022-11-05T07:19:39.601Z,96.39
2022-11-05T07:23:51.098Z,96.15
2022-11-05T07:28:03.039Z,96.53
2022-11-05T07:32:14.533Z,97.41
2022-11-05T07:36:26.121Z,97.64
2022-11-05T07:40:37.669Z,96.89
2022-11-05T07:44:49.149Z,96.71
2022-11-05T07:49:00.723Z,97.44
2022-11-05T07:53:15.544Z,97.46
2022-11-05T07:57:27.208Z,97.01
2022-11-05T08:01:38.860Z,97.74
2022-11-05T08:05:50.495Z,97.55
2022-11-05T08:10:04.142Z,97.71
2022-11-05T08:14:15.796Z,96.56
2022-11-05T08:18:34.153Z,96.22
2022-11-05T08:22:46.017Z,96.74
2022-11-05T08:26:57.501Z,96.09
2022-11-05T08:31:09.011Z,95.72
2022-11-05T08:35:20.490Z,95.86
2022-11-05T08:39:32.000Z,95.53
2022-11-05T08:43:43.497Z,94.56
2022-11-05T08:47:59.359Z,94.05
2022-11-05T08:52:10.855Z,92.85
2022-11-05T08:56:23.879Z,93.09
2022-11-05T09:00:37.118Z,93.78
2022-11-05T09:04:48.625Z,93.41
2022-11-05T09:09:00.246Z,93.13
2022-11-05T09:13:18.387Z,92.95
2022-11-05T09:17:31.219Z,92.35
2022-11-05T09:21:43.658Z,91.84
2022-11-05T09:25:55.800Z,91.71
2022-11-05T09:30:07.971Z,91.96
2022-11-05T09:34:19.444Z,91.74
2022-11-05T09:38:32.411Z,91.47
2022-11-05T09:42:46.882Z,91.02
2022-11-05T09:47:02.034Z,90.64
2022-11-05T09:51:20.748Z,90.65
2022-11-05T09:55:39.015Z,91.34
2022-11-05T09:59:56.946Z,90.75
2022-11-05T10:04:31.143Z,90.87
2022-11-05T10:08:47.159Z,90.81
2022-11-05T10:13:25.371Z,90.68
2022-11-05T10:17:41.631Z,90.30
2022-11-05T10:22:09.016Z,90.83
2022-11-05T10:26:24.112Z,90.31
2022-11-05T10:30:35.785Z,90.53
2022-11-05T10:34:47.374Z,90.87
2022-11-05T10:39:06.364Z,90.43
2022-11-05T10:43:46.111Z,90.23
2022-11-05T10:48:50.730Z,90.61
2022-11-05T10:53:26.725Z,90.59
2022-11-05T10:57:41.079Z,91.05
2022-11-05T11:01:59.520Z,91.44
2022-11-05T11:06:25.149Z,90.77
2022-11-05T11:11:05.264Z,90.55
2022-11-05T11:15:25.959Z,90.69
2022-11-05T11:19:37.446Z,89.59
2022-11-05T11:23:57.893Z,90.64
2022-11-05T11:28:19.970Z,92.58
2022-11-05T11:32:39.137Z,92.61
2022-11-05T11:36:56.551Z,91.69
2022-11-05T11:41:17.000Z,91.68
2022-11-05T11:45:46.412Z,92.58
2022-11-05T11:49:59.504Z,92.08
2022-11-05T11:54:20.492Z,91.13
2022-11-05T11:58:39.140Z,91.09
2022-11-05T12:03:20.358Z,91.06
2022-11-05T12:08:08.866Z,92.12
2022-11-05T12:12:46.446Z,91.30
2022-11-05T12:17:10.845Z,90.62
2022-11-05T12:21:53.310Z,91.01
2022-11-05T12:26:43.079Z,90.77
2022-11-05T12:31:28.141Z,90.43
2022-11-05T12:36:07.582Z,90.20
2022-11-05T12:40:50.330Z,89.72
2022-11-05T12:45:21.956Z,89.58
2022-11-05T12:49:59.894Z,88.98
2022-11-05T12:54:30.011Z,89.11
2022-11-05T12:58:46.839Z,87.96
2022-11-05T13:03:07.354Z,89.38
2022-11-05T13:07:36.000Z,89.32
2022-11-05T13:11:53.456Z,89.33
2022-11-05T13:16:19.596Z,89.31
2022-11-05T13:20:36.218Z,88.80
2022-11-05T13:24:56.797Z,88.81
2022-11-05T13:29:15.463Z,88.65
2022-11-05T13:33:40.820Z,86.09
2022-11-05T13:38:15.851Z,85.72
2022-11-05T13:42:52.197Z,84.81
2022-11-05T13:47:22.190Z,85.01
2022-11-05T13:51:42.936Z,82.96
2022-11-05T13:56:32.111Z,83.38
2022-11-05T14:01:18.908Z,81.60
2022-11-05T14:05:38.236Z,82.72
2022-11-05T14:09:56.755Z,82.10
2022-11-05T14:14:23.596Z,82.24
2022-11-05T14:19:07.415Z,81.51
2022-11-05T14:23:24.703Z,82.02
2022-11-05T14:27:36.141Z,81.14
2022-11-05T14:32:12.579Z,81.92
2022-11-05T14:36:36.453Z,82.35
2022-11-05T14:40:49.615Z,82.88
2022-11-05T14:45:21.531Z,83.01
2022-11-05T14:49:37.257Z,82.62
2022-11-05T14:53:48.905Z,82.74
2022-11-05T14:58:04.098Z,82.81
2022-11-05T15:02:19.780Z,83.90
2022-11-05T15:06:36.700Z,84.81
2022-11-05T15:10:49.069Z,85.20
2022-11-05T15:15:04.870Z,86.14
2022-11-05T15:19:34.609Z,87.62
2022-11-05T15:23:48.887Z,87.31
2022-11-05T15:28:06.117Z,86.82
2022-11-05T15:32:22.834Z,86.79
2022-11-05T15:36:34.517Z,87.97
2022-11-05T15:40:46.067Z,88.60
2022-11-05T15:44:59.439Z,88.61
2022-11-05T15:49:19.499Z,88.44
2022-11-05T15:54:24.385Z,88.17
2022-11-05T15:58:30.455Z,88.17
2022-11-05T16:02:42.184Z,87.71
2022-11-05T16:06:57.158Z,87.57
2022-11-05T16:11:08.649Z,87.97
2022-11-05T16:15:25.862Z,88.52
2022-11-05T16:19:41.340Z,88.93
2022-11-05T16:23:58.560Z,89.93
2022-11-05T16:28:27.788Z,89.06
2022-11-05T16:32:39.268Z,89.91
2022-11-05T16:36:50.799Z,90.40
2022-11-05T16:41:02.446Z,91.60
2022-11-05T16:45:15.540Z,92.15
2022-11-05T16:49:27.082Z,92.67
2022-11-05T16:53:38.872Z,92.97
2022-11-05T16:57:55.316Z,93.04
2022-11-05T17:02:10.936Z,92.51
2022-11-05T17:06:23.275Z,92.17
2022-11-05T17:10:35.470Z,92.58
2022-11-05T17:14:46.976Z,91.77
2022-11-05T17:18:58.447Z,91.56
2022-11-05T17:23:12.931Z,91.56
2022-11-05T17:27:24.716Z,91.72
2022-11-05T17:31:36.492Z,91.42
2022-11-05T17:35:48.233Z,91.44
2022-11-05T17:40:00.794Z,91.17
2022-11-05T17:44:12.368Z,91.47
2022-11-05T17:48:23.881Z,91.35
2022-11-05T17:52:35.407Z,92.34
2022-11-05T17:56:46.958Z,92.23
2022-11-05T18:00:58.463Z,92.65
2022-11-05T18:05:10.156Z,92.71
2022-11-05T18:09:21.688Z,92.65
2022-11-05T18:13:33.190Z,93.16
2022-11-05T18:17:46.205Z,93.30
2022-11-05T18:21:57.738Z,93.37
2022-11-05T18:26:14.401Z,93.37
2022-11-05T18:30:25.885Z,93.42
2022-11-05T18:34:37.840Z,93.27
2022-11-05T18:38:49.799Z,93.64
2022-11-05T18:43:01.277Z,93.41
2022-11-05T18:47:12.805Z,93.78
2022-11-05T18:51:25.108Z,94.01
2022-11-05T18:55:39.227Z,93.77
2022-11-05T18:59:50.724Z,94.00
2022-11-05T19:04:02.244Z,94.26
2022-11-05T19:08:14.129Z,94.20
2022-11-05T19:12:25.857Z,93.38
2022-11-05T19:16:37.658Z,93.17
2022-11-05T19:20:49.181Z,92.86
2022-11-05T19:25:00.730Z,92.19
2022-11-05T19:29:12.417Z,92.86
2022-11-05T19:33:23.900Z,93.25
2022-11-05T19:37:35.436Z,93.17
2022-11-05T19:41:48.928Z,93.33
2022-11-05T19:46:00.767Z,93.66
2022-11-05T19:50:12.863Z,93.66
2022-11-05T19:54:24.382Z,93.93
2022-11-05T19:58:36.111Z,93.40
2022-11-05T20:02:47.777Z,93.36
2022-11-05T20:06:59.411Z,92.69
2022-11-05T20:11:11.659Z,93.20
2022-11-05T20:15:23.136Z,92.78
2022-11-05T20:19:35.353Z,91.97
2022-11-05T20:23:47.183Z,92.37
2022-11-05T20:27:58.664Z,92.15
2022-11-05T20:32:12.308Z,92.60
2022-11-05T20:36:25.591Z,92.08
2022-11-05T20:40:39.646Z,92.18
2022-11-05T20:44:51.228Z,92.43
2022-11-05T20:49:02.773Z,92.45
2022-11-05T20:53:14.383Z,92.85
2022-11-05T20:57:25.868Z,92.51
2022-11-05T21:01:37.472Z,92.76
2022-11-05T21:05:52.103Z,92.08
2022-11-05T21:10:04.884Z,91.85
2022-11-05T21:14:16.404Z,91.76
2022-11-05T21:18:30.605Z,91.60
2022-11-05T21:22:45.221Z,92.36
2022-11-05T21:26:56.760Z,92.24
2022-11-05T21:31:09.323Z,91.99
2022-11-05T21:35:21.156Z,92.35
2022-11-05T21:39:36.008Z,92.48
2022-11-05T21:43:47.493Z,92.99
2022-11-05T21:47:59.103Z,92.49
2022-11-05T21:52:30.355Z,92.67
2022-11-05T21:57:04.225Z,92.74
2022-11-05T22:01:18.627Z,92.71
2022-11-05T22:05:30.295Z,91.92
2022-11-05T22:09:43.116Z,92.52
2022-11-05T22:13:54.616Z,92.42
2022-11-05T22:18:06.106Z,92.06
2022-11-05T22:22:17.625Z,91.74
2022-11-05T22:26:29.141Z,92.38
